sensor_id;sensor_type;location;lat;lon;timestamp;P1;durP1;ratioP1;P2;durP2;ratioP2
36585;SDS011;22591;48.314;11.562;2023-08-01T00:01:02;6.65;;;3.80;;
36585;SDS011;22591;48.314;11.562;2023-08-01T00:03:28;3.40;;;3.10;;
36585;SDS011;22591;48.314;11.562;2023-08-01T00:05:54;6.15;;;3.45;;
36585;SDS011;22591;48.314;11.562;2023-08-01T00:08:20;4.47;;;3.20;;
36585;SDS011;22591;48.314;11.562;2023-08-01T00:10:46;3.58;;;3.28;;
36585;SDS011;22591;48.314;11.562;2023-08-01T00:13:11;4.30;;;3.30;;
36585;SDS011;22591;48.314;11.562;2023-08-01T00:15:37;4.32;;;3.90;;
36585;SDS011;22591;48.314;11.562;2023-08-01T00:18:03;3.53;;;3.22;;
36585;SDS011;22591;48.314;11.562;2023-08-01T00:20:29;3.47;;;3.15;;
36585;SDS011;22591;48.314;11.562;2023-08-01T00:22:55;4.43;;;3.33;;
36585;SDS011;22591;48.314;11.562;2023-08-01T00:25:20;3.35;;;3.03;;
36585;SDS011;22591;48.314;11.562;2023-08-01T00:27:46;3.38;;;3.08;;
36585;SDS011;22591;48.314;11.562;2023-08-01T00:30:11;4.75;;;3.30;;
36585;SDS011;22591;48.314;11.562;2023-08-01T00:32:37;4.00;;;3.25;;
36585;SDS011;22591;48.314;11.562;2023-08-01T00:35:03;3.25;;;2.95;;
36585;SDS011;22591;48.314;11.562;2023-08-01T00:37:29;4.68;;;3.63;;
36585;SDS011;22591;48.314;11.562;2023-08-01T00:39:55;3.65;;;2.95;;
36585;SDS011;22591;48.314;11.562;2023-08-01T00:42:20;3.70;;;3.28;;
36585;SDS011;22591;48.314;11.562;2023-08-01T00:44:46;3.72;;;3.42;;
36585;SDS011;22591;48.314;11.562;2023-08-01T00:47:13;3.00;;;2.80;;
36585;SDS011;22591;48.314;11.562;2023-08-01T00:49:39;4.95;;;3.20;;
36585;SDS011;22591;48.314;11.562;2023-08-01T00:52:06;6.70;;;3.42;;
36585;SDS011;22591;48.314;11.562;2023-08-01T00:54:32;3.65;;;3.35;;
36585;SDS011;22591;48.314;11.562;2023-08-01T00:57:01;3.45;;;3.08;;
36585;SDS011;22591;48.314;11.562;2023-08-01T00:59:30;4.00;;;3.63;;
36585;SDS011;22591;48.314;11.562;2023-08-01T01:01:56;3.60;;;3.30;;
36585;SDS011;22591;48.314;11.562;2023-08-01T01:04:23;5.50;;;3.17;;
36585;SDS011;22591;48.314;11.562;2023-08-01T01:06:53;5.25;;;3.40;;
36585;SDS011;22591;48.314;11.562;2023-08-01T01:09:27;3.95;;;3.20;;
36585;SDS011;22591;48.314;11.562;2023-08-01T01:11:54;3.53;;;3.05;;
36585;SDS011;22591;48.314;11.562;2023-08-01T01:14:19;4.20;;;3.50;;
36585;SDS011;22591;48.314;11.562;2023-08-01T01:16:45;3.35;;;3.15;;
36585;SDS011;22591;48.314;11.562;2023-08-01T01:19:10;6.20;;;3.30;;
36585;SDS011;22591;48.314;11.562;2023-08-01T01:24:42;3.47;;;3.20;;
36585;SDS011;22591;48.314;11.562;2023-08-01T01:27:08;3.83;;;3.53;;
36585;SDS011;22591;48.314;11.562;2023-08-01T01:29:34;3.40;;;3.10;;
36585;SDS011;22591;48.314;11.562;2023-08-01T01:32:01;4.32;;;3.97;;
36585;SDS011;22591;48.314;11.562;2023-08-01T01:34:30;3.88;;;3.05;;
36585;SDS011;22591;48.314;11.562;2023-08-01T01:36:55;3.38;;;3.10;;
36585;SDS011;22591;48.314;11.562;2023-08-01T01:39:21;6.53;;;3.97;;
36585;SDS011;22591;48.314;11.562;2023-08-01T01:41:46;3.40;;;3.10;;
36585;SDS011;22591;48.314;11.562;2023-08-01T01:44:12;6.00;;;3.25;;
36585;SDS011;22591;48.314;11.562;2023-08-01T01:46:37;4.00;;;3.60;;
36585;SDS011;22591;48.314;11.562;2023-08-01T01:49:03;3.33;;;3.03;;
36585;SDS011;22591;48.314;11.562;2023-08-01T01:51:29;4.38;;;2.78;;
36585;SDS011;22591;48.314;11.562;2023-08-01T01:53:55;3.60;;;3.30;;
36585;SDS011;22591;48.314;11.562;2023-08-01T01:56:21;3.33;;;3.03;;
36585;SDS011;22591;48.314;11.562;2023-08-01T01:58:47;3.28;;;2.92;;
36585;SDS011;22591;48.314;11.562;2023-08-01T02:01:12;6.78;;;3.42;;
36585;SDS011;22591;48.314;11.562;2023-08-01T02:03:38;3.80;;;3.47;;
36585;SDS011;22591;48.314;11.562;2023-08-01T02:06:03;3.00;;;2.70;;
36585;SDS011;22591;48.314;11.562;2023-08-01T02:08:29;4.28;;;3.03;;
36585;SDS011;22591;48.314;11.562;2023-08-01T02:10:55;4.38;;;3.65;;
36585;SDS011;22591;48.314;11.562;2023-08-01T02:13:23;3.70;;;3.20;;
36585;SDS011;22591;48.314;11.562;2023-08-01T02:15:52;3.50;;;3.20;;
36585;SDS011;22591;48.314;11.562;2023-08-01T02:18:18;3.50;;;3.20;;
36585;SDS011;22591;48.314;11.562;2023-08-01T02:20:44;8.50;;;3.60;;
36585;SDS011;22591;48.314;11.562;2023-08-01T02:23:10;3.63;;;3.33;;
36585;SDS011;22591;48.314;11.562;2023-08-01T02:25:41;5.63;;;3.70;;
36585;SDS011;22591;48.314;11.562;2023-08-01T02:28:07;3.40;;;3.20;;
36585;SDS011;22591;48.314;11.562;2023-08-01T02:30:36;3.53;;;3.22;;
36585;SDS011;22591;48.314;11.562;2023-08-01T02:33:02;3.03;;;2.83;;
36585;SDS011;22591;48.314;11.562;2023-08-01T02:35:28;4.85;;;3.78;;
36585;SDS011;22591;48.314;11.562;2023-08-01T02:37:54;3.45;;;3.17;;
36585;SDS011;22591;48.314;11.562;2023-08-01T02:40:20;4.63;;;3.47;;
36585;SDS011;22591;48.314;11.562;2023-08-01T02:42:46;4.00;;;3.08;;
36585;SDS011;22591;48.314;11.562;2023-08-01T02:45:11;3.00;;;2.80;;
36585;SDS011;22591;48.314;11.562;2023-08-01T02:47:37;3.75;;;3.20;;
36585;SDS011;22591;48.314;11.562;2023-08-01T02:50:02;4.00;;;3.45;;
36585;SDS011;22591;48.314;11.562;2023-08-01T02:52:28;3.78;;;3.47;;
36585;SDS011;22591;48.314;11.562;2023-08-01T02:54:55;4.47;;;3.17;;
36585;SDS011;22591;48.314;11.562;2023-08-01T02:57:20;3.85;;;3.42;;
36585;SDS011;22591;48.314;11.562;2023-08-01T02:59:46;3.67;;;3.30;;
36585;SDS011;22591;48.314;11.562;2023-08-01T03:02:12;3.80;;;3.40;;
36585;SDS011;22591;48.314;11.562;2023-08-01T03:04:37;3.95;;;3.30;;
36585;SDS011;22591;48.314;11.562;2023-08-01T03:07:03;3.88;;;3.50;;
36585;SDS011;22591;48.314;11.562;2023-08-01T03:09:29;3.55;;;3.33;;
36585;SDS011;22591;48.314;11.562;2023-08-01T03:11:54;3.58;;;3.28;;
36585;SDS011;22591;48.314;11.562;2023-08-01T03:14:20;4.10;;;3.50;;
36585;SDS011;22591;48.314;11.562;2023-08-01T03:16:45;3.78;;;3.47;;
36585;SDS011;22591;48.314;11.562;2023-08-01T03:19:11;3.35;;;3.05;;
36585;SDS011;22591;48.314;11.562;2023-08-01T03:21:36;4.10;;;3.08;;
36585;SDS011;22591;48.314;11.562;2023-08-01T03:24:03;3.63;;;3.33;;
36585;SDS011;22591;48.314;11.562;2023-08-01T03:26:28;3.45;;;2.95;;
36585;SDS011;22591;48.314;11.562;2023-08-01T03:28:55;4.95;;;3.65;;
36585;SDS011;22591;48.314;11.562;2023-08-01T03:31:21;3.60;;;3.35;;
36585;SDS011;22591;48.314;11.562;2023-08-01T03:33:47;4.50;;;4.10;;
36585;SDS011;22591;48.314;11.562;2023-08-01T03:36:13;4.63;;;4.00;;
36585;SDS011;22591;48.314;11.562;2023-08-01T03:38:38;3.92;;;3.60;;
36585;SDS011;22591;48.314;11.562;2023-08-01T03:41:04;6.78;;;4.50;;
36585;SDS011;22591;48.314;11.562;2023-08-01T03:43:30;4.07;;;3.67;;
36585;SDS011;22591;48.314;11.562;2023-08-01T03:45:55;4.57;;;4.18;;
36585;SDS011;22591;48.314;11.562;2023-08-01T03:48:21;4.32;;;3.80;;
36585;SDS011;22591;48.314;11.562;2023-08-01T03:50:46;5.18;;;3.88;;
36585;SDS011;22591;48.314;11.562;2023-08-01T03:53:12;4.25;;;3.85;;
36585;SDS011;22591;48.314;11.562;2023-08-01T03:55:38;4.18;;;3.80;;
36585;SDS011;22591;48.314;11.562;2023-08-01T03:58:04;4.85;;;4.43;;
36585;SDS011;22591;48.314;11.562;2023-08-01T04:00:29;10.05;;;4.38;;
36585;SDS011;22591;48.314;11.562;2023-08-01T04:02:59;4.82;;;4.25;;
36585;SDS011;22591;48.314;11.562;2023-08-01T04:05:25;7.97;;;4.18;;
36585;SDS011;22591;48.314;11.562;2023-08-01T04:07:50;4.38;;;4.07;;
36585;SDS011;22591;48.314;11.562;2023-08-01T04:10:19;5.70;;;4.78;;
36585;SDS011;22591;48.314;11.562;2023-08-01T04:12:45;5.80;;;4.47;;
36585;SDS011;22591;48.314;11.562;2023-08-01T04:15:11;6.25;;;4.43;;
36585;SDS011;22591;48.314;11.562;2023-08-01T04:17:36;4.80;;;4.40;;
36585;SDS011;22591;48.314;11.562;2023-08-01T04:20:02;5.65;;;4.63;;
36585;SDS011;22591;48.314;11.562;2023-08-01T04:22:28;5.68;;;4.10;;
36585;SDS011;22591;48.314;11.562;2023-08-01T04:24:53;5.00;;;4.57;;
36585;SDS011;22591;48.314;11.562;2023-08-01T04:27:19;4.93;;;4.50;;
36585;SDS011;22591;48.314;11.562;2023-08-01T04:29:44;6.35;;;4.65;;
36585;SDS011;22591;48.314;11.562;2023-08-01T04:32:10;8.55;;;4.78;;
36585;SDS011;22591;48.314;11.562;2023-08-01T04:34:38;5.72;;;5.03;;
36585;SDS011;22591;48.314;11.562;2023-08-01T04:37:04;6.70;;;5.47;;
36585;SDS011;22591;48.314;11.562;2023-08-01T04:39:30;5.78;;;5.18;;
36585;SDS011;22591;48.314;11.562;2023-08-01T04:41:55;6.40;;;5.53;;
36585;SDS011;22591;48.314;11.562;2023-08-01T04:44:21;6.03;;;5.22;;
36585;SDS011;22591;48.314;11.562;2023-08-01T04:46:47;6.65;;;5.88;;
36585;SDS011;22591;48.314;11.562;2023-08-01T04:49:13;5.97;;;4.75;;
36585;SDS011;22591;48.314;11.562;2023-08-01T04:51:39;6.97;;;5.55;;
36585;SDS011;22591;48.314;11.562;2023-08-01T04:54:05;6.22;;;5.10;;
36585;SDS011;22591;48.314;11.562;2023-08-01T04:56:31;5.55;;;5.15;;
36585;SDS011;22591;48.314;11.562;2023-08-01T04:58:56;6.90;;;5.85;;
36585;SDS011;22591;48.314;11.562;2023-08-01T05:01:22;10.57;;;6.75;;
36585;SDS011;22591;48.314;11.562;2023-08-01T05:03:48;6.45;;;5.72;;
36585;SDS011;22591;48.314;11.562;2023-08-01T05:06:13;8.57;;;5.40;;
36585;SDS011;22591;48.314;11.562;2023-08-01T05:08:39;6.75;;;6.00;;
36585;SDS011;22591;48.314;11.562;2023-08-01T05:11:04;10.50;;;6.30;;
36585;SDS011;22591;48.314;11.562;2023-08-01T05:13:30;8.25;;;5.65;;
36585;SDS011;22591;48.314;11.562;2023-08-01T05:15:56;6.82;;;5.97;;
36585;SDS011;22591;48.314;11.562;2023-08-01T05:18:21;6.97;;;5.45;;
36585;SDS011;22591;48.314;11.562;2023-08-01T05:20:47;12.27;;;6.47;;
36585;SDS011;22591;48.314;11.562;2023-08-01T05:23:12;7.35;;;5.80;;
36585;SDS011;22591;48.314;11.562;2023-08-01T05:25:38;7.35;;;5.75;;
36585;SDS011;22591;48.314;11.562;2023-08-01T05:28:03;6.88;;;6.20;;
36585;SDS011;22591;48.314;11.562;2023-08-01T05:30:29;9.63;;;6.32;;
36585;SDS011;22591;48.314;11.562;2023-08-01T05:32:54;11.07;;;6.22;;
36585;SDS011;22591;48.314;11.562;2023-08-01T05:35:20;8.13;;;5.25;;
36585;SDS011;22591;48.314;11.562;2023-08-01T05:37:46;5.80;;;5.25;;
36585;SDS011;22591;48.314;11.562;2023-08-01T05:40:12;7.45;;;5.93;;
36585;SDS011;22591;48.314;11.562;2023-08-01T05:42:37;7.05;;;5.38;;
36585;SDS011;22591;48.314;11.562;2023-08-01T05:45:03;7.63;;;5.70;;
36585;SDS011;22591;48.314;11.562;2023-08-01T05:47:29;7.45;;;5.68;;
36585;SDS011;22591;48.314;11.562;2023-08-01T05:49:55;5.93;;;5.43;;
36585;SDS011;22591;48.314;11.562;2023-08-01T05:52:21;5.72;;;5.25;;
36585;SDS011;22591;48.314;11.562;2023-08-01T05:54:47;6.82;;;5.68;;
36585;SDS011;22591;48.314;11.562;2023-08-01T05:57:12;6.43;;;5.85;;
36585;SDS011;22591;48.314;11.562;2023-08-01T05:59:38;7.38;;;5.55;;
36585;SDS011;22591;48.314;11.562;2023-08-01T06:02:03;5.53;;;5.03;;
36585;SDS011;22591;48.314;11.562;2023-08-01T06:04:29;5.43;;;4.93;;
36585;SDS011;22591;48.314;11.562;2023-08-01T06:06:55;5.30;;;4.90;;
36585;SDS011;22591;48.314;11.562;2023-08-01T06:09:21;5.93;;;5.35;;
36585;SDS011;22591;48.314;11.562;2023-08-01T06:11:46;5.63;;;4.78;;
36585;SDS011;22591;48.314;11.562;2023-08-01T06:14:12;6.65;;;5.13;;
36585;SDS011;22591;48.314;11.562;2023-08-01T06:16:38;5.40;;;4.90;;
36585;SDS011;22591;48.314;11.562;2023-08-01T06:19:03;7.00;;;5.78;;
36585;SDS011;22591;48.314;11.562;2023-08-01T06:21:30;5.72;;;5.07;;
36585;SDS011;22591;48.314;11.562;2023-08-01T06:23:56;6.75;;;4.88;;
36585;SDS011;22591;48.314;11.562;2023-08-01T06:26:21;5.95;;;5.35;;
36585;SDS011;22591;48.314;11.562;2023-08-01T06:28:47;5.82;;;4.47;;
36585;SDS011;22591;48.314;11.562;2023-08-01T06:31:12;7.38;;;4.65;;
36585;SDS011;22591;48.314;11.562;2023-08-01T06:33:38;4.82;;;4.38;;
36585;SDS011;22591;48.314;11.562;2023-08-01T06:36:05;6.28;;;3.78;;
36585;SDS011;22591;48.314;11.562;2023-08-01T06:38:30;4.47;;;4.07;;
36585;SDS011;22591;48.314;11.562;2023-08-01T06:40:56;4.60;;;4.20;;
36585;SDS011;22591;48.314;11.562;2023-08-01T06:43:21;7.30;;;4.00;;
36585;SDS011;22591;48.314;11.562;2023-08-01T06:45:49;4.72;;;4.32;;
36585;SDS011;22591;48.314;11.562;2023-08-01T06:48:15;6.88;;;4.55;;
36585;SDS011;22591;48.314;11.562;2023-08-01T06:50:40;5.43;;;3.55;;
36585;SDS011;22591;48.314;11.562;2023-08-01T06:53:06;4.05;;;3.72;;
36585;SDS011;22591;48.314;11.562;2023-08-01T06:55:33;7.53;;;4.10;;
36585;SDS011;22591;48.314;11.562;2023-08-01T06:57:58;4.60;;;4.18;;
36585;SDS011;22591;48.314;11.562;2023-08-01T07:00:24;4.10;;;3.70;;
36585;SDS011;22591;48.314;11.562;2023-08-01T07:02:49;4.32;;;3.92;;
36585;SDS011;22591;48.314;11.562;2023-08-01T07:05:15;4.72;;;4.32;;
36585;SDS011;22591;48.314;11.562;2023-08-01T07:07:40;4.43;;;4.03;;
36585;SDS011;22591;48.314;11.562;2023-08-01T07:10:06;4.70;;;4.30;;
36585;SDS011;22591;48.314;11.562;2023-08-01T07:12:32;3.67;;;3.38;;
36585;SDS011;22591;48.314;11.562;2023-08-01T07:14:58;5.72;;;3.78;;
36585;SDS011;22591;48.314;11.562;2023-08-01T07:17:23;4.03;;;3.72;;
36585;SDS011;22591;48.314;11.562;2023-08-01T07:19:49;4.15;;;3.85;;
36585;SDS011;22591;48.314;11.562;2023-08-01T07:22:14;3.85;;;3.47;;
36585;SDS011;22591;48.314;11.562;2023-08-01T07:24:40;4.55;;;3.85;;
36585;SDS011;22591;48.314;11.562;2023-08-01T07:27:05;3.97;;;3.60;;
36585;SDS011;22591;48.314;11.562;2023-08-01T07:29:31;3.92;;;3.35;;
36585;SDS011;22591;48.314;11.562;2023-08-01T07:31:56;4.82;;;3.65;;
36585;SDS011;22591;48.314;11.562;2023-08-01T07:34:22;3.80;;;3.50;;
36585;SDS011;22591;48.314;11.562;2023-08-01T07:36:48;4.13;;;3.70;;
36585;SDS011;22591;48.314;11.562;2023-08-01T07:39:14;4.45;;;3.63;;
36585;SDS011;22591;48.314;11.562;2023-08-01T07:41:40;3.83;;;3.53;;
36585;SDS011;22591;48.314;11.562;2023-08-01T07:44:05;6.10;;;3.83;;
36585;SDS011;22591;48.314;11.562;2023-08-01T07:46:31;3.50;;;2.95;;
36585;SDS011;22591;48.314;11.562;2023-08-01T07:48:57;4.32;;;3.80;;
36585;SDS011;22591;48.314;11.562;2023-08-01T07:51:24;3.85;;;3.47;;
36585;SDS011;22591;48.314;11.562;2023-08-01T07:53:51;4.22;;;3.67;;
36585;SDS011;22591;48.314;11.562;2023-08-01T07:56:18;3.60;;;3.30;;
36585;SDS011;22591;48.314;11.562;2023-08-01T07:58:44;5.78;;;3.40;;
36585;SDS011;22591;48.314;11.562;2023-08-01T08:01:10;3.25;;;3.05;;
36585;SDS011;22591;48.314;11.562;2023-08-01T08:03:35;3.70;;;3.25;;
36585;SDS011;22591;48.314;11.562;2023-08-01T08:06:01;3.92;;;3.63;;
36585;SDS011;22591;48.314;11.562;2023-08-01T08:08:28;3.45;;;3.15;;
36585;SDS011;22591;48.314;11.562;2023-08-01T08:10:54;3.60;;;3.30;;
36585;SDS011;22591;48.314;11.562;2023-08-01T08:13:20;3.67;;;3.30;;
36585;SDS011;22591;48.314;11.562;2023-08-01T08:15:46;3.97;;;3.67;;
36585;SDS011;22591;48.314;11.562;2023-08-01T08:18:11;3.60;;;3.30;;
36585;SDS011;22591;48.314;11.562;2023-08-01T08:20:41;3.15;;;2.95;;
36585;SDS011;22591;48.314;11.562;2023-08-01T08:23:08;3.60;;;3.30;;
36585;SDS011;22591;48.314;11.562;2023-08-01T08:25:34;3.63;;;3.33;;
36585;SDS011;22591;48.314;11.562;2023-08-01T08:27:59;3.85;;;3.50;;
36585;SDS011;22591;48.314;11.562;2023-08-01T08:30:25;3.92;;;3.17;;
36585;SDS011;22591;48.314;11.562;2023-08-01T08:32:50;3.40;;;3.10;;
36585;SDS011;22591;48.314;11.562;2023-08-01T08:35:16;3.53;;;3.10;;
36585;SDS011;22591;48.314;11.562;2023-08-01T08:37:41;3.45;;;3.17;;
36585;SDS011;22591;48.314;11.562;2023-08-01T08:40:07;3.58;;;3.25;;
36585;SDS011;22591;48.314;11.562;2023-08-01T08:42:33;4.90;;;3.40;;
36585;SDS011;22591;48.314;11.562;2023-08-01T08:45:01;3.70;;;3.40;;
36585;SDS011;22591;48.314;11.562;2023-08-01T08:47:27;3.65;;;3.35;;
36585;SDS011;22591;48.314;11.562;2023-08-01T08:49:55;3.67;;;3.38;;
36585;SDS011;22591;48.314;11.562;2023-08-01T08:52:24;3.80;;;3.50;;
36585;SDS011;22591;48.314;11.562;2023-08-01T08:54:51;6.85;;;3.28;;
36585;SDS011;22591;48.314;11.562;2023-08-01T08:57:17;4.40;;;3.50;;
36585;SDS011;22591;48.314;11.562;2023-08-01T08:59:44;3.60;;;3.30;;
36585;SDS011;22591;48.314;11.562;2023-08-01T09:02:11;3.92;;;3.25;;
36585;SDS011;22591;48.314;11.562;2023-08-01T09:04:39;3.60;;;3.40;;
36585;SDS011;22591;48.314;11.562;2023-08-01T09:07:07;3.50;;;3.20;;
36585;SDS011;22591;48.314;11.562;2023-08-01T09:09:34;3.50;;;3.20;;
36585;SDS011;22591;48.314;11.562;2023-08-01T09:12:00;4.25;;;3.63;;
36585;SDS011;22591;48.314;11.562;2023-08-01T09:14:25;3.42;;;3.13;;
36585;SDS011;22591;48.314;11.562;2023-08-01T09:16:51;4.55;;;3.40;;
36585;SDS011;22591;48.314;11.562;2023-08-01T09:19:20;3.50;;;3.20;;
36585;SDS011;22591;48.314;11.562;2023-08-01T09:21:48;3.50;;;3.20;;
36585;SDS011;22591;48.314;11.562;2023-08-01T09:24:18;3.55;;;3.25;;
36585;SDS011;22591;48.314;11.562;2023-08-01T09:26:46;3.75;;;3.08;;
36585;SDS011;22591;48.314;11.562;2023-08-01T09:29:12;4.10;;;3.67;;
36585;SDS011;22591;48.314;11.562;2023-08-01T09:31:41;3.25;;;3.05;;
36585;SDS011;22591;48.314;11.562;2023-08-01T09:34:20;3.65;;;3.35;;
36585;SDS011;22591;48.314;11.562;2023-08-01T09:36:47;4.35;;;3.97;;
36585;SDS011;22591;48.314;11.562;2023-08-01T09:39:17;3.65;;;3.35;;
36585;SDS011;22591;48.314;11.562;2023-08-01T09:41:44;3.95;;;3.42;;
36585;SDS011;22591;48.314;11.562;2023-08-01T09:44:16;3.17;;;2.97;;
36585;SDS011;22591;48.314;11.562;2023-08-01T09:46:42;4.63;;;3.45;;
36585;SDS011;22591;48.314;11.562;2023-08-01T09:49:12;4.07;;;3.25;;
36585;SDS011;22591;48.314;11.562;2023-08-01T09:51:47;4.63;;;3.08;;
36585;SDS011;22591;48.314;11.562;2023-08-01T09:54:14;4.25;;;3.50;;
36585;SDS011;22591;48.314;11.562;2023-08-01T09:56:41;6.32;;;3.33;;
36585;SDS011;22591;48.314;11.562;2023-08-01T09:59:12;3.58;;;3.28;;
36585;SDS011;22591;48.314;11.562;2023-08-01T10:01:41;3.80;;;3.50;;
36585;SDS011;22591;48.314;11.562;2023-08-01T10:04:10;3.70;;;3.40;;
36585;SDS011;22591;48.314;11.562;2023-08-01T10:06:37;3.55;;;3.10;;
36585;SDS011;22591;48.314;11.562;2023-08-01T10:09:06;3.35;;;3.08;;
36585;SDS011;22591;48.314;11.562;2023-08-01T10:11:35;4.18;;;2.92;;
36585;SDS011;22591;48.314;11.562;2023-08-01T10:14:04;7.75;;;3.88;;
36585;SDS011;22591;48.314;11.562;2023-08-01T10:16:31;4.60;;;3.42;;
36585;SDS011;22591;48.314;11.562;2023-08-01T10:18:58;7.70;;;3.92;;
36585;SDS011;22591;48.314;11.562;2023-08-01T10:21:25;5.68;;;3.22;;
36585;SDS011;22591;48.314;11.562;2023-08-01T10:23:52;5.50;;;4.55;;
36585;SDS011;22591;48.314;11.562;2023-08-01T10:26:20;4.35;;;3.47;;
36585;SDS011;22591;48.314;11.562;2023-08-01T10:28:52;3.70;;;3.25;;
36585;SDS011;22591;48.314;11.562;2023-08-01T10:31:18;2.78;;;2.58;;
36585;SDS011;22591;48.314;11.562;2023-08-01T10:33:46;5.40;;;3.00;;
36585;SDS011;22591;48.314;11.562;2023-08-01T10:36:16;4.70;;;3.00;;
36585;SDS011;22591;48.314;11.562;2023-08-01T10:43:51;3.50;;;3.17;;
36585;SDS011;22591;48.314;11.562;2023-08-01T10:46:28;3.50;;;3.17;;
36585;SDS011;22591;48.314;11.562;2023-08-01T10:48:54;3.45;;;3.15;;
36585;SDS011;22591;48.314;11.562;2023-08-01T10:51:19;6.15;;;3.08;;
36585;SDS011;22591;48.314;11.562;2023-08-01T10:53:45;3.50;;;3.20;;
36585;SDS011;22591;48.314;11.562;2023-08-01T10:56:17;3.22;;;3.00;;
36585;SDS011;22591;48.314;11.562;2023-08-01T10:58:44;3.33;;;3.13;;
36585;SDS011;22591;48.314;11.562;2023-08-01T11:01:10;3.58;;;3.28;;
36585;SDS011;22591;48.314;11.562;2023-08-01T11:03:36;4.45;;;3.45;;
36585;SDS011;22591;48.314;11.562;2023-08-01T11:06:03;3.25;;;3.03;;
36585;SDS011;22591;48.314;11.562;2023-08-01T11:08:38;3.92;;;3.13;;
36585;SDS011;22591;48.314;11.562;2023-08-01T11:11:05;4.70;;;3.40;;
36585;SDS011;22591;48.314;11.562;2023-08-01T11:13:33;3.88;;;3.10;;
36585;SDS011;22591;48.314;11.562;2023-08-01T11:16:01;3.72;;;3.42;;
36585;SDS011;22591;48.314;11.562;2023-08-01T11:18:27;3.70;;;3.35;;
36585;SDS011;22591;48.314;11.562;2023-08-01T11:20:53;4.20;;;3.33;;
36585;SDS011;22591;48.314;11.562;2023-08-01T11:23:26;3.28;;;3.08;;
36585;SDS011;22591;48.314;11.562;2023-08-01T11:25:56;3.38;;;2.78;;
36585;SDS011;22591;48.314;11.562;2023-08-01T11:28:22;4.18;;;2.83;;
36585;SDS011;22591;48.314;11.562;2023-08-01T11:30:49;3.33;;;3.03;;
36585;SDS011;22591;48.314;11.562;2023-08-01T11:33:21;4.40;;;2.88;;
36585;SDS011;22591;48.314;11.562;2023-08-01T11:38:18;4.75;;;2.80;;
36585;SDS011;22591;48.314;11.562;2023-08-01T11:40:46;2.92;;;2.70;;
36585;SDS011;22591;48.314;11.562;2023-08-01T11:43:14;2.67;;;2.50;;
36585;SDS011;22591;48.314;11.562;2023-08-01T11:45:47;3.05;;;2.85;;
36585;SDS011;22591;48.314;11.562;2023-08-01T11:48:19;2.40;;;2.20;;
36585;SDS011;22591;48.314;11.562;2023-08-01T11:50:46;1.85;;;1.75;;
36585;SDS011;22591;48.314;11.562;2023-08-01T11:53:21;2.67;;;2.47;;
36585;SDS011;22591;48.314;11.562;2023-08-01T11:55:47;2.63;;;2.42;;
36585;SDS011;22591;48.314;11.562;2023-08-01T11:58:14;2.50;;;2.30;;
36585;SDS011;22591;48.314;11.562;2023-08-01T12:00:40;2.60;;;2.40;;
36585;SDS011;22591;48.314;11.562;2023-08-01T12:03:07;2.45;;;2.25;;
36585;SDS011;22591;48.314;11.562;2023-08-01T12:05:40;2.58;;;2.38;;
36585;SDS011;22591;48.314;11.562;2023-08-01T12:08:10;2.50;;;2.30;;
36585;SDS011;22591;48.314;11.562;2023-08-01T12:10:41;2.28;;;2.15;;
36585;SDS011;22591;48.314;11.562;2023-08-01T12:13:23;2.50;;;2.30;;
36585;SDS011;22591;48.314;11.562;2023-08-01T12:15:51;4.05;;;2.80;;
36585;SDS011;22591;48.314;11.562;2023-08-01T12:18:24;2.53;;;2.33;;
36585;SDS011;22591;48.314;11.562;2023-08-01T12:20:54;2.60;;;2.40;;
36585;SDS011;22591;48.314;11.562;2023-08-01T12:23:21;2.47;;;2.28;;
36585;SDS011;22591;48.314;11.562;2023-08-01T12:25:47;2.60;;;2.40;;
36585;SDS011;22591;48.314;11.562;2023-08-01T12:28:13;2.40;;;2.20;;
36585;SDS011;22591;48.314;11.562;2023-08-01T12:30:40;3.17;;;2.78;;
36585;SDS011;22591;48.314;11.562;2023-08-01T12:33:06;2.83;;;2.63;;
36585;SDS011;22591;48.314;11.562;2023-08-01T12:35:32;2.78;;;2.63;;
36585;SDS011;22591;48.314;11.562;2023-08-01T12:37:58;3.03;;;2.83;;
36585;SDS011;22591;48.314;11.562;2023-08-01T12:40:24;2.50;;;2.30;;
36585;SDS011;22591;48.314;11.562;2023-08-01T12:42:50;2.55;;;2.35;;
36585;SDS011;22591;48.314;11.562;2023-08-01T12:45:15;3.05;;;2.67;;
36585;SDS011;22591;48.314;11.562;2023-08-01T12:47:41;3.20;;;2.90;;
36585;SDS011;22591;48.314;11.562;2023-08-01T12:50:07;2.78;;;2.58;;
36585;SDS011;22591;48.314;11.562;2023-08-01T12:52:33;3.03;;;2.80;;
36585;SDS011;22591;48.314;11.562;2023-08-01T12:54:58;3.33;;;3.03;;
36585;SDS011;22591;48.314;11.562;2023-08-01T12:57:25;2.92;;;2.78;;
36585;SDS011;22591;48.314;11.562;2023-08-01T12:59:51;3.25;;;2.95;;
36585;SDS011;22591;48.314;11.562;2023-08-01T13:02:16;2.58;;;2.42;;
36585;SDS011;22591;48.314;11.562;2023-08-01T13:04:42;3.38;;;3.08;;
36585;SDS011;22591;48.314;11.562;2023-08-01T13:07:08;2.97;;;2.78;;
36585;SDS011;22591;48.314;11.562;2023-08-01T13:09:33;6.13;;;3.17;;
36585;SDS011;22591;48.314;11.562;2023-08-01T13:11:59;3.20;;;2.88;;
36585;SDS011;22591;48.314;11.562;2023-08-01T13:14:25;3.13;;;2.83;;
36585;SDS011;22591;48.314;11.562;2023-08-01T13:16:51;2.88;;;2.55;;
36585;SDS011;22591;48.314;11.562;2023-08-01T13:19:17;3.00;;;2.67;;
36585;SDS011;22591;48.314;11.562;2023-08-01T13:21:43;4.93;;;2.75;;
36585;SDS011;22591;48.314;11.562;2023-08-01T13:24:09;5.55;;;2.80;;
36585;SDS011;22591;48.314;11.562;2023-08-01T13:26:35;3.40;;;1.77;;
36585;SDS011;22591;48.314;11.562;2023-08-01T13:29:01;1.50;;;1.40;;
36585;SDS011;22591;48.314;11.562;2023-08-01T13:31:27;1.30;;;1.20;;
36585;SDS011;22591;48.314;11.562;2023-08-01T13:33:53;4.10;;;1.98;;
36585;SDS011;22591;48.314;11.562;2023-08-01T13:36:20;1.23;;;1.13;;
36585;SDS011;22591;48.314;11.562;2023-08-01T13:38:46;1.48;;;1.30;;
36585;SDS011;22591;48.314;11.562;2023-08-01T13:41:11;1.40;;;1.30;;
36585;SDS011;22591;48.314;11.562;2023-08-01T13:43:37;1.42;;;1.20;;
36585;SDS011;22591;48.314;11.562;2023-08-01T13:46:13;2.05;;;1.75;;
36585;SDS011;22591;48.314;11.562;2023-08-01T13:48:41;2.00;;;1.90;;
36585;SDS011;22591;48.314;11.562;2023-08-01T13:51:07;2.97;;;2.35;;
36585;SDS011;22591;48.314;11.562;2023-08-01T13:53:32;2.45;;;2.17;;
36585;SDS011;22591;48.314;11.562;2023-08-01T13:55:58;2.20;;;2.10;;
36585;SDS011;22591;48.314;11.562;2023-08-01T13:58:24;2.30;;;2.20;;
36585;SDS011;22591;48.314;11.562;2023-08-01T14:00:50;2.33;;;2.20;;
36585;SDS011;22591;48.314;11.562;2023-08-01T14:03:16;2.90;;;2.60;;
36585;SDS011;22591;48.314;11.562;2023-08-01T14:05:41;2.78;;;2.58;;
36585;SDS011;22591;48.314;11.562;2023-08-01T14:08:07;3.22;;;2.97;;
36585;SDS011;22591;48.314;11.562;2023-08-01T14:10:32;2.70;;;2.50;;
36585;SDS011;22591;48.314;11.562;2023-08-01T14:12:58;2.40;;;2.20;;
36585;SDS011;22591;48.314;11.562;2023-08-01T14:15:23;2.40;;;2.20;;
36585;SDS011;22591;48.314;11.562;2023-08-01T14:17:49;2.63;;;2.53;;
36585;SDS011;22591;48.314;11.562;2023-08-01T14:20:14;5.00;;;2.33;;
36585;SDS011;22591;48.314;11.562;2023-08-01T14:22:41;2.42;;;2.22;;
36585;SDS011;22591;48.314;11.562;2023-08-01T14:25:07;2.20;;;2.10;;
36585;SDS011;22591;48.314;11.562;2023-08-01T14:27:33;2.20;;;2.00;;
36585;SDS011;22591;48.314;11.562;2023-08-01T14:29:59;1.73;;;1.63;;
36585;SDS011;22591;48.314;11.562;2023-08-01T14:32:25;1.20;;;1.20;;
36585;SDS011;22591;48.314;11.562;2023-08-01T14:34:50;1.02;;;1.00;;
36585;SDS011;22591;48.314;11.562;2023-08-01T14:37:16;2.70;;;1.10;;
36585;SDS011;22591;48.314;11.562;2023-08-01T14:39:41;1.17;;;1.08;;